createdAt,value
2019-02-07T00:00:30.290Z,22.10
2019-02-07T00:02:59.068Z,23.65
2019-02-07T00:05:28.000Z,25.00
2019-02-07T00:07:56.817Z,22.87
2019-02-07T00:10:25.696Z,21.42
2019-02-07T00:12:55.018Z,23.75
2019-02-07T00:15:23.861Z,23.45
2019-02-07T00:17:52.946Z,20.32
2019-02-07T00:20:21.835Z,21.17
2019-02-07T00:22:50.733Z,19.62
2019-02-07T00:25:19.557Z,21.25
2019-02-07T00:27:48.401Z,17.48
2019-02-07T00:30:19.665Z,22.58
2019-02-07T00:32:48.678Z,22.45
2019-02-07T00:35:17.835Z,21.33
2019-02-07T00:37:46.841Z,21.35
2019-02-07T00:40:17.771Z,20.50
2019-02-07T00:42:47.106Z,21.70
2019-02-07T00:45:17.440Z,18.20
2019-02-07T00:47:46.222Z,19.17
2019-02-07T00:50:16.600Z,20.68
2019-02-07T00:52:45.698Z,21.73
2019-02-07T00:55:15.831Z,19.37
2019-02-07T00:57:45.044Z,19.55
2019-02-07T01:00:20.071Z,20.82
2019-02-07T01:02:48.972Z,21.42
2019-02-07T01:05:18.138Z,20.80
2019-02-07T01:07:47.029Z,18.00
2019-02-07T01:10:19.287Z,19.57
2019-02-07T01:12:49.628Z,21.15
2019-02-07T01:15:18.862Z,22.62
2019-02-07T01:17:47.623Z,22.55
2019-02-07T01:20:17.304Z,25.32
2019-02-07T01:22:46.412Z,21.27
2019-02-07T01:25:22.806Z,20.45
2019-02-07T01:28:10.588Z,28.35
2019-02-07T01:30:58.445Z,22.42
2019-02-07T01:33:46.687Z,21.90
2019-02-07T01:36:34.846Z,23.25
2019-02-07T01:39:24.360Z,23.38
2019-02-07T01:42:12.222Z,19.62
2019-02-07T01:44:59.977Z,22.75
2019-02-07T01:47:47.795Z,19.57
2019-02-07T01:50:35.657Z,22.10
2019-02-07T01:56:17.396Z,20.43
2019-02-07T01:59:05.698Z,18.80
2019-02-07T02:01:53.520Z,17.95
2019-02-07T02:04:42.997Z,17.35
2019-02-07T02:19:33.701Z,17.98
2019-02-07T02:34:11.016Z,19.55
2019-02-07T02:39:50.794Z,16.90
2019-02-07T03:03:45.959Z,17.80
2019-02-07T03:45:35.645Z,21.87
2019-02-07T03:51:16.902Z,19.35
2019-02-07T04:11:55.782Z,20.65
2019-02-07T04:29:39.014Z,22.05
2019-02-07T04:32:21.602Z,14.43
2019-02-07T04:59:32.312Z,24.77
2019-02-07T05:23:21.523Z,21.20
2019-02-07T05:26:21.500Z,21.07
2019-02-07T05:32:36.206Z,20.57
2019-02-07T06:23:39.253Z,20.82
2019-02-07T06:50:14.018Z,21.07
2019-02-07T07:43:58.622Z,25.92
2019-02-07T07:52:57.297Z,28.62
2019-02-07T07:55:39.637Z,27.90
2019-02-07T08:04:20.474Z,30.43
2019-02-07T08:07:20.663Z,27.80
2019-02-07T11:24:06.404Z,18.98
2019-02-07T11:50:58.368Z,19.20
2019-02-07T12:02:54.855Z,15.90
2019-02-07T12:05:37.897Z,18.48
2019-02-07T12:26:38.037Z,14.30
2019-02-07T13:23:08.206Z,14.20
2019-02-07T13:28:54.748Z,14.15
2019-02-07T13:31:25.239Z,19.30
2019-02-07T13:33:56.001Z,17.23
2019-02-07T13:36:43.944Z,17.55
2019-02-07T13:39:32.537Z,13.88
2019-02-07T13:42:19.616Z,14.98
2019-02-07T13:44:59.017Z,14.85
2019-02-07T13:47:32.400Z,19.10
2019-02-07T13:50:19.421Z,17.20
2019-02-07T13:52:49.914Z,18.45
2019-02-07T13:55:37.376Z,14.28
2019-02-07T13:58:07.686Z,14.30
2019-02-07T14:00:38.107Z,18.45
2019-02-07T14:03:25.218Z,17.07
2019-02-07T14:05:59.228Z,16.95
2019-02-07T14:08:38.417Z,14.98
2019-02-07T14:11:04.919Z,13.90
2019-02-07T14:13:51.294Z,16.57
2019-02-07T14:16:27.999Z,16.07
2019-02-07T14:19:14.632Z,16.80
2019-02-07T14:22:01.633Z,18.70
2019-02-07T14:24:48.580Z,15.60
2019-02-07T14:27:22.428Z,16.07
2019-02-07T14:30:09.360Z,16.57
2019-02-07T14:32:49.062Z,18.85
2019-02-07T14:35:31.567Z,20.00
2019-02-07T14:38:07.728Z,14.53
2019-02-07T14:40:46.882Z,19.32
2019-02-07T14:43:20.314Z,24.10
2019-02-07T14:46:07.281Z,17.75
2019-02-07T14:48:36.039Z,18.52
2019-02-07T14:51:05.048Z,24.25
2019-02-07T14:53:33.911Z,16.73
2019-02-07T14:56:02.699Z,17.45
2019-02-07T14:58:31.559Z,17.02
2019-02-07T15:01:00.450Z,21.02
2019-02-07T15:03:29.608Z,17.60
2019-02-07T15:05:58.452Z,16.60
2019-02-07T15:08:27.320Z,16.62
2019-02-07T15:10:56.400Z,18.42
2019-02-07T15:13:25.256Z,15.90
2019-02-07T15:15:54.109Z,16.93
2019-02-07T15:18:23.250Z,17.40
2019-02-07T15:20:52.000Z,14.70
2019-02-07T15:23:20.815Z,15.80
2019-02-07T15:25:49.865Z,16.60
2019-02-07T15:28:18.741Z,21.35
2019-02-07T15:30:47.961Z,17.32
2019-02-07T15:33:16.738Z,15.32
2019-02-07T15:35:48.796Z,13.83
2019-02-07T15:38:17.600Z,17.23
2019-02-07T15:40:46.718Z,17.77
2019-02-07T15:43:16.041Z,15.28
2019-02-07T15:45:44.860Z,14.73
2019-02-07T15:48:13.658Z,18.32
2019-02-07T15:50:42.558Z,15.28
2019-02-07T15:53:11.729Z,13.32
2019-02-07T15:55:40.613Z,13.93
2019-02-07T15:58:09.498Z,16.77
2019-02-07T16:00:49.037Z,16.73
2019-02-07T16:03:32.042Z,17.67
2019-02-07T16:06:00.902Z,20.80
2019-02-07T16:08:29.658Z,18.73
2019-02-07T16:10:58.394Z,20.20
2019-02-07T16:13:27.142Z,16.55
2019-02-07T16:15:55.992Z,20.12
2019-02-07T16:18:25.007Z,16.45
2019-02-07T16:20:53.891Z,18.05
2019-02-07T16:23:22.681Z,16.10
2019-02-07T16:25:51.501Z,18.62
2019-02-07T16:28:20.411Z,19.80
2019-02-07T16:30:49.464Z,17.12
2019-02-07T16:33:18.204Z,19.55
2019-02-07T16:35:46.941Z,17.62
2019-02-07T16:38:15.696Z,21.02
2019-02-07T16:40:44.551Z,21.00
2019-02-07T16:43:13.392Z,19.92
2019-02-07T16:45:42.497Z,17.80
2019-02-07T16:48:11.317Z,15.90
2019-02-07T16:50:40.090Z,19.80
2019-02-07T16:53:08.961Z,19.73
2019-02-07T16:55:37.917Z,19.10
2019-02-07T16:58:06.822Z,21.27
2019-02-07T17:00:37.476Z,24.15
2019-02-07T17:03:07.480Z,22.13
2019-02-07T17:05:37.984Z,20.05
2019-02-07T17:08:06.967Z,18.25
2019-02-07T17:10:38.156Z,19.17
2019-02-07T17:13:10.052Z,17.95
2019-02-07T17:15:39.171Z,22.85
2019-02-07T17:18:08.140Z,18.65
2019-02-07T17:20:37.410Z,19.35
2019-02-07T17:23:07.207Z,21.05
2019-02-07T17:25:36.020Z,23.80
2019-02-07T17:28:05.167Z,18.80
2019-02-07T17:30:34.692Z,23.20
2019-02-07T17:33:03.551Z,21.80
2019-02-07T17:35:33.091Z,17.20
2019-02-07T17:38:01.896Z,24.32
2019-02-07T17:40:30.775Z,21.17
2019-02-07T17:42:59.606Z,20.17
2019-02-07T17:45:32.268Z,20.00
2019-02-07T17:48:01.279Z,30.55
2019-02-07T17:50:35.121Z,25.27
2019-02-07T17:53:12.381Z,22.10
2019-02-07T17:55:41.428Z,22.62
2019-02-07T17:58:11.291Z,22.35
2019-02-07T18:01:02.500Z,22.98
2019-02-07T18:03:31.651Z,21.87
2019-02-07T18:06:00.549Z,26.77
2019-02-07T18:08:29.929Z,23.52
2019-02-07T18:10:58.696Z,23.73
2019-02-07T18:13:27.798Z,22.40
2019-02-07T18:15:57.492Z,27.65
2019-02-07T18:18:26.661Z,23.35
2019-02-07T18:20:55.569Z,29.32
2019-02-07T18:23:24.313Z,26.12
2019-02-07T18:25:53.057Z,29.77
2019-02-07T18:28:21.906Z,24.20
2019-02-07T18:30:50.753Z,28.77
2019-02-07T18:33:19.579Z,23.27
2019-02-07T18:35:48.357Z,24.63
2019-02-07T18:38:17.099Z,27.25
2019-02-07T18:40:46.159Z,26.80
2019-02-07T18:43:15.005Z,29.35
2019-02-07T18:45:43.805Z,27.85
2019-02-07T18:48:12.634Z,25.20
2019-02-07T18:50:41.688Z,29.77
2019-02-07T18:53:10.465Z,29.30
2019-02-07T18:55:39.270Z,29.80
2019-02-07T18:58:08.149Z,30.80
2019-02-07T19:00:38.363Z,28.27
2019-02-07T19:03:08.464Z,29.48
2019-02-07T19:05:37.317Z,29.50
2019-02-07T19:08:06.811Z,30.00
2019-02-07T19:10:35.836Z,29.27
2019-02-07T19:13:05.317Z,32.40
2019-02-07T19:15:39.818Z,29.57
2019-02-07T19:18:08.733Z,31.10
2019-02-07T19:20:37.817Z,34.53
2019-02-07T19:23:07.271Z,32.30
2019-02-07T19:25:36.655Z,30.45
2019-02-07T19:28:24.522Z,34.50
2019-02-07T19:31:12.345Z,32.28
2019-02-07T19:34:01.889Z,33.33
2019-02-07T19:36:49.653Z,36.23
2019-02-07T19:39:37.491Z,33.13
2019-02-07T19:42:25.345Z,32.48
2019-02-07T19:45:13.180Z,31.87
2019-02-07T19:48:01.510Z,32.83
2019-02-07T19:50:49.352Z,33.58
2019-02-07T19:53:38.887Z,31.95
2019-02-07T19:56:27.199Z,33.90
2019-02-07T19:59:15.122Z,32.25
2019-02-07T20:02:02.939Z,38.50
2019-02-07T20:04:50.802Z,35.70
2019-02-07T20:07:38.617Z,33.20
2019-02-07T20:10:26.563Z,33.28
2019-02-07T20:13:28.248Z,39.88
2019-02-07T20:31:22.373Z,35.92
2019-02-07T20:34:10.564Z,32.28
2019-02-07T20:36:58.533Z,38.10
2019-02-07T20:39:46.368Z,36.30
2019-02-07T20:42:34.236Z,40.58
2019-02-07T20:45:22.086Z,31.95
2019-02-07T20:48:09.978Z,39.33
2019-02-07T20:50:57.793Z,37.93
2019-02-07T20:53:47.573Z,37.80
2019-02-07T20:56:35.471Z,39.10
2019-02-07T20:59:23.346Z,39.98
2019-02-07T21:02:11.302Z,35.65
2019-02-07T21:04:59.495Z,44.93
2019-02-07T21:07:47.410Z,40.60
2019-02-07T21:10:35.260Z,37.03
2019-02-07T21:13:25.215Z,40.12
2019-02-07T22:13:12.820Z,40.70
2019-02-07T22:15:54.230Z,39.40
2019-02-07T22:54:11.191Z,44.15
2019-02-07T22:56:59.008Z,43.40
2019-02-07T22:59:46.809Z,44.58
2019-02-07T23:02:34.569Z,39.95
2019-02-07T23:05:22.413Z,41.28
2019-02-07T23:08:10.317Z,36.73
2019-02-07T23:10:58.111Z,36.30
2019-02-07T23:13:45.879Z,34.95
2019-02-07T23:19:39.850Z,43.80
